Time;durP1;ratioP1;P1;durP2;ratioP2;P2;SDS_P1;SDS_P2;PMS_P1;PMS_P2;Temp;Humidity;BMP_temperature;BMP_pressure;BME280_temperature;BME280_humidity;BME280_pressure;Samples;Min_cycle;Max_cycle;Signal;HPM_P1;HPM_P2
2023/09/24 00:01:26;;;;;;;3.78;2.38;;;;;;;10.50;95.13;102215.25;4944373;29;20431;-83
2023/09/24 00:03:51;;;;;;;3.72;2.30;;;;;;;10.45;95.08;102217.88;4941367;29;20036;-83
2023/09/24 00:06:17;;;;;;;3.15;2.15;;;;;;;10.39;95.39;102218.75;4943237;29;20034;-83
2023/09/24 00:08:42;;;;;;;4.03;2.70;;;;;;;10.40;96.85;102228.31;4943101;28;20060;-83
2023/09/24 00:11:08;;;;;;;3.45;2.20;;;;;;;10.39;96.24;102216.16;4940952;29;20059;-83
2023/09/24 00:13:35;;;;;;;3.72;2.20;;;;;;;10.39;96.01;102217.88;4948006;28;20032;-83
2023/09/24 00:16:07;;;;;;;4.00;2.40;;;;;;;10.37;96.04;102224.78;4949452;29;20031;-83
2023/09/24 00:18:33;;;;;;;3.97;2.60;;;;;;;10.37;97.01;102230.00;4949700;29;20031;-83
2023/09/24 00:20:58;;;;;;;4.60;2.40;;;;;;;10.36;96.89;102230.84;4950315;28;20031;-83
2023/09/24 00:23:24;;;;;;;3.78;2.53;;;;;;;10.35;96.31;102236.94;4947079;28;20043;-83
2023/09/24 00:25:49;;;;;;;4.47;2.70;;;;;;;10.35;97.62;102234.34;4945313;29;20055;-83
2023/09/24 00:28:15;;;;;;;5.03;2.67;;;;;;;10.35;97.65;102232.63;4953945;29;20471;-84
2023/09/24 00:30:42;;;;;;;4.93;2.65;;;;;;;10.37;97.77;102240.41;4947184;28;20122;-83
2023/09/24 00:33:08;;;;;;;3.88;2.20;;;;;;;10.37;97.82;102236.09;4939628;29;20082;-84
2023/09/24 00:35:33;;;;;;;3.55;2.50;;;;;;;10.35;95.95;102236.94;4948445;29;20039;-83
2023/09/24 00:37:58;;;;;;;3.58;2.33;;;;;;;10.30;95.69;102226.53;4949609;28;20035;-83
2023/09/24 00:40:24;;;;;;;4.75;2.20;;;;;;;10.27;95.45;102229.16;4949088;29;20442;-83
2023/09/24 00:42:49;;;;;;;4.07;2.55;;;;;;;10.24;95.74;102231.78;4955875;28;20038;-84
2023/09/24 00:45:15;;;;;;;3.70;2.40;;;;;;;10.22;95.76;102230.91;4951635;29;20042;-83
2023/09/24 00:47:42;;;;;;;4.15;2.53;;;;;;;10.20;95.41;102230.91;4947648;28;20027;-83
2023/09/24 00:50:08;;;;;;;6.78;3.35;;;;;;;10.18;97.44;102230.03;4949401;28;20498;-83
2023/09/24 00:52:34;;;;;;;7.20;2.67;;;;;;;10.19;96.96;102231.75;4951350;28;20111;-84
2023/09/24 00:55:00;;;;;;;5.50;3.05;;;;;;;10.18;98.05;102228.31;4948950;29;20035;-83
2023/09/24 00:57:26;;;;;;;4.82;2.97;;;;;;;10.18;98.19;102236.13;4951953;28;20106;-83
2023/09/24 00:59:51;;;;;;;4.90;2.80;;;;;;;10.21;98.30;102244.78;4954737;29;20026;-83
2023/09/24 01:02:17;;;;;;;6.65;3.10;;;;;;;10.21;98.30;102245.63;4937049;29;20044;-83
2023/09/24 01:04:44;;;;;;;5.18;3.10;;;;;;;10.21;98.08;102252.59;4938492;28;20020;-83
2023/09/24 01:07:09;;;;;;;6.10;3.15;;;;;;;10.19;98.50;102247.38;4950230;28;20031;-83
2023/09/24 01:09:34;;;;;;;5.28;3.30;;;;;;;10.21;98.31;102247.38;4952791;28;20035;-83
2023/09/24 01:12:04;;;;;;;5.18;3.47;;;;;;;10.20;98.41;102237.84;4955542;28;20027;-83
2023/09/24 01:14:29;;;;;;;4.30;3.08;;;;;;;10.18;98.30;102249.13;4950819;29;20043;-83
2023/09/24 01:16:55;;;;;;;5.22;3.33;;;;;;;10.16;98.24;102243.03;4949248;29;20033;-83
2023/09/24 01:19:23;;;;;;;5.88;3.10;;;;;;;10.14;98.39;102252.59;4953422;29;20611;-84
2023/09/24 01:21:50;;;;;;;5.82;3.33;;;;;;;10.12;98.36;102253.47;4953774;28;20089;-83
2023/09/24 01:24:15;;;;;;;6.22;3.40;;;;;;;10.11;98.40;102242.19;4950012;28;20118;-83
2023/09/24 01:26:41;;;;;;;5.95;3.25;;;;;;;10.09;98.24;102243.06;4948217;29;20597;-83
2023/09/24 01:29:09;;;;;;;5.30;3.55;;;;;;;10.07;98.59;102252.59;4948389;29;20042;-83
2023/09/24 01:31:36;;;;;;;5.60;3.50;;;;;;;10.06;98.45;102248.25;4941203;29;20039;-83
2023/09/24 01:34:02;;;;;;;6.63;3.42;;;;;;;10.07;98.67;102247.38;4942672;29;20055;-83
2023/09/24 01:36:27;;;;;;;4.88;3.45;;;;;;;10.06;98.61;102246.53;4948025;29;20035;-84
2023/09/24 01:38:53;;;;;;;7.22;3.80;;;;;;;10.04;98.30;102243.06;4949382;28;20031;-83
2023/09/24 01:41:19;;;;;;;4.15;3.38;;;;;;;10.03;98.33;102241.34;4953679;28;20134;-83
2023/09/24 01:43:45;;;;;;;5.05;3.42;;;;;;;10.02;98.27;102234.41;4951455;28;20031;-83
2023/09/24 01:46:13;;;;;;;5.30;3.53;;;;;;;10.00;98.40;102231.78;4946084;29;20031;-83
2023/09/24 01:48:38;;;;;;;6.22;4.53;;;;;;;10.01;98.40;102228.31;4946836;29;20423;-83
2023/09/24 01:51:08;;;;;;;9.93;4.80;;;;;;;10.00;98.61;102226.59;4945433;29;20020;-83
2023/09/24 01:53:34;;;;;;;9.15;5.28;;;;;;;10.00;98.30;102238.72;4948147;29;20039;-85
2023/09/24 01:56:01;;;;;;;10.43;5.85;;;;;;;10.00;98.15;102236.97;4945541;29;20030;-84
2023/09/24 01:58:26;;;;;;;9.27;4.97;;;;;;;9.98;98.19;102235.25;4942966;29;20023;-83
2023/09/24 02:00:52;;;;;;;6.78;4.25;;;;;;;9.96;98.38;102232.69;4946361;28;20507;-83
2023/09/24 02:03:17;;;;;;;7.38;4.22;;;;;;;9.97;98.25;102238.72;4952173;29;20053;-83
2023/09/24 02:05:43;;;;;;;7.60;4.45;;;;;;;9.95;98.07;102233.53;4953298;29;20027;-84
2023/09/24 02:08:09;;;;;;;6.47;4.18;;;;;;;9.94;98.39;102231.81;4950871;28;20379;-83
2023/09/24 02:10:35;;;;;;;8.25;4.45;;;;;;;9.93;98.28;102237.88;4949169;29;20027;-84
2023/09/24 02:13:00;;;;;;;6.18;3.92;;;;;;;9.91;98.20;102234.41;4952982;28;20027;-84
2023/09/24 02:15:26;;;;;;;7.93;4.88;;;;;;;9.92;98.38;102235.25;4942539;28;20367;-84
2023/09/24 02:17:52;;;;;;;8.23;5.15;;;;;;;9.91;98.40;102238.72;4947830;28;20028;-84
2023/09/24 02:20:32;;;;;;;8.30;5.20;;;;;;;9.90;98.26;102242.22;4939492;29;20479;-83
2023/09/24 02:22:59;;;;;;;9.10;5.07;;;;;;;9.91;98.27;102246.53;4945475;29;20035;-84
2023/09/24 02:25:26;;;;;;;8.25;5.10;;;;;;;9.91;98.21;102254.31;4947864;28;20027;-84
2023/09/24 02:27:52;;;;;;;7.60;5.15;;;;;;;9.88;98.17;102247.41;4949581;28;20023;-83
2023/09/24 02:30:18;;;;;;;7.72;5.43;;;;;;;9.85;97.99;102260.38;4948223;28;20034;-84
2023/09/24 02:32:44;;;;;;;9.50;5.70;;;;;;;9.82;97.92;102260.41;4943836;28;20023;-83
2023/09/24 02:35:11;;;;;;;8.27;5.10;;;;;;;9.79;97.75;102258.66;4949304;29;20051;-83
2023/09/24 02:37:38;;;;;;;8.25;5.35;;;;;;;9.77;97.50;102268.19;4945222;28;20035;-83
2023/09/24 02:40:11;;;;;;;7.07;5.43;;;;;;;9.76;97.83;102268.19;4950555;28;20019;-83
2023/09/24 02:42:37;;;;;;;8.25;4.90;;;;;;;9.74;97.74;102270.78;4950373;28;20505;-83
2023/09/24 02:45:02;;;;;;;7.80;4.35;;;;;;;9.72;97.73;102263.00;4950736;28;20023;-83
2023/09/24 02:47:27;;;;;;;7.80;4.18;;;;;;;9.70;97.68;102269.06;4950444;28;20073;-83
2023/09/24 02:49:53;;;;;;;6.57;4.35;;;;;;;9.69;97.57;102268.19;4945759;29;20023;-83
2023/09/24 02:52:18;;;;;;;7.40;4.20;;;;;;;9.67;97.98;102269.06;4950030;29;20058;-83
2023/09/24 02:54:45;;;;;;;5.15;3.65;;;;;;;9.66;97.69;102268.16;4952587;29;20086;-83
2023/09/24 02:57:10;;;;;;;6.32;3.92;;;;;;;9.65;97.72;102263.84;4950481;29;20031;-83
2023/09/24 02:59:36;;;;;;;8.68;4.03;;;;;;;9.63;97.62;102263.00;4946414;29;20098;-83
2023/09/24 03:02:01;;;;;;;5.57;3.83;;;;;;;9.62;97.76;102258.66;4944294;28;20048;-83
2023/09/24 03:04:26;;;;;;;5.57;3.88;;;;;;;9.62;97.46;102260.38;4950814;28;20437;-83
2023/09/24 03:06:52;;;;;;;4.18;3.50;;;;;;;9.61;98.06;102266.44;4951210;29;20038;-83
2023/09/24 03:09:18;;;;;;;5.80;4.10;;;;;;;9.59;97.88;102273.34;4947540;28;20486;-83
2023/09/24 03:11:43;;;;;;;6.25;3.70;;;;;;;9.59;97.73;102265.56;4950916;29;20061;-83
2023/09/24 03:14:08;;;;;;;5.75;3.70;;;;;;;9.57;97.74;102271.63;4952898;29;20050;-83
2023/09/24 03:16:34;;;;;;;4.95;3.85;;;;;;;9.55;97.98;102270.78;4949979;28;20027;-83
2023/09/24 03:19:02;;;;;;;7.80;3.70;;;;;;;9.54;97.84;102282.03;4948755;28;20077;-83
2023/09/24 03:21:27;;;;;;;7.95;3.80;;;;;;;9.53;97.76;102271.63;4940956;29;20055;-83
2023/09/24 03:23:52;;;;;;;7.93;3.83;;;;;;;9.51;97.88;102279.44;4947139;29;20061;-83
2023/09/24 03:26:19;;;;;;;6.28;3.55;;;;;;;9.49;97.86;102281.16;4946410;29;20039;-83
2023/09/24 03:28:44;;;;;;;5.93;3.95;;;;;;;9.48;97.80;102279.41;4949761;29;20518;-84
2023/09/24 03:31:14;;;;;;;6.47;3.55;;;;;;;9.47;98.15;102282.88;4948641;29;20035;-83
2023/09/24 03:33:39;;;;;;;6.80;4.10;;;;;;;9.47;97.77;102288.06;4945348;28;20153;-83
2023/09/24 03:36:07;;;;;;;6.03;4.50;;;;;;;9.46;97.98;102288.94;4939951;28;20044;-83
2023/09/24 03:38:36;;;;;;;7.68;4.75;;;;;;;9.45;97.67;102300.19;4950437;29;20383;-83
2023/09/24 03:41:03;;;;;;;6.30;4.20;;;;;;;9.45;97.73;102305.38;4949030;29;20482;-83
2023/09/24 03:43:28;;;;;;;5.22;3.78;;;;;;;9.43;97.67;102298.47;4945904;28;20124;-83
2023/09/24 03:45:53;;;;;;;5.03;3.92;;;;;;;9.42;97.52;102307.97;4942145;28;20039;-83
2023/09/24 03:48:19;;;;;;;6.32;3.97;;;;;;;9.41;97.44;102301.03;4947232;28;20038;-83
2023/09/24 03:50:45;;;;;;;5.43;3.65;;;;;;;9.40;97.07;102309.69;4946681;28;20039;-83
2023/09/24 03:53:10;;;;;;;6.15;3.58;;;;;;;9.38;96.26;102309.69;4952525;28;20195;-83
2023/09/24 03:55:35;;;;;;;5.22;3.38;;;;;;;9.33;96.23;102310.56;4946041;29;20027;-83
2023/09/24 03:58:01;;;;;;;4.95;3.80;;;;;;;9.29;96.68;102304.50;4948555;29;20030;-83
2023/09/24 04:00:27;;;;;;;6.45;3.70;;;;;;;9.23;97.27;102305.31;4945421;29;20071;-83
2023/09/24 04:02:52;;;;;;;6.15;3.72;;;;;;;9.25;97.06;102303.59;4949506;28;20035;-83
2023/09/24 04:05:21;;;;;;;5.00;3.28;;;;;;;9.26;97.19;102314.84;4945689;28;20046;-83
2023/09/24 04:07:49;;;;;;;5.68;3.15;;;;;;;9.24;96.78;102313.97;4951584;28;20045;-83
2023/09/24 04:10:15;;;;;;;4.57;3.15;;;;;;;9.22;96.85;102316.56;4948630;28;20028;-83
2023/09/24 04:12:50;;;;;;;4.68;3.22;;;;;;;9.22;97.19;102315.69;4952199;28;20122;-83
2023/09/24 04:15:18;;;;;;;5.25;3.25;;;;;;;9.23;97.26;102318.28;4951305;28;20272;-83
2023/09/24 04:17:44;;;;;;;4.20;3.20;;;;;;;9.23;96.62;102320.88;4948089;29;20126;-83
2023/09/24 04:20:19;;;;;;;5.78;3.38;;;;;;;9.23;97.09;102318.28;4947454;28;20158;-83
2023/09/24 04:22:45;;;;;;;4.55;2.92;;;;;;;9.24;97.04;102333.00;4947020;28;20039;-83
2023/09/24 04:25:14;;;;;;;5.10;3.28;;;;;;;9.22;96.82;102328.69;4948025;29;20412;-83
2023/09/24 04:27:39;;;;;;;5.55;3.03;;;;;;;9.21;96.75;102327.84;4937877;28;20027;-83
2023/09/24 04:30:10;;;;;;;4.45;2.90;;;;;;;9.19;96.85;102332.16;4944649;28;20038;-83
2023/09/24 04:32:35;;;;;;;5.47;3.00;;;;;;;9.17;96.72;102330.38;4952073;28;20038;-83
2023/09/24 04:35:01;;;;;;;5.60;3.03;;;;;;;9.16;96.62;102326.94;4945160;29;20419;-83
2023/09/24 04:37:26;;;;;;;6.05;2.72;;;;;;;9.15;96.68;102326.91;4939780;29;20098;-83
2023/09/24 04:39:52;;;;;;;4.70;2.90;;;;;;;9.14;96.76;102333.84;4940107;28;20498;-83
2023/09/24 04:42:17;;;;;;;3.97;2.70;;;;;;;9.14;96.89;102326.06;4955327;29;20700;-83
2023/09/24 04:44:42;;;;;;;5.30;2.72;;;;;;;9.14;96.63;102335.59;4948794;29;20027;-83
2023/09/24 04:47:07;;;;;;;4.18;2.95;;;;;;;9.13;96.77;102328.66;4953994;29;20031;-83
2023/09/24 04:49:33;;;;;;;6.53;3.10;;;;;;;9.11;96.67;102336.44;4951167;29;20027;-83
2023/09/24 04:51:58;;;;;;;4.22;2.90;;;;;;;9.10;96.67;102334.69;4946198;28;20398;-83
2023/09/24 04:54:23;;;;;;;5.80;2.72;;;;;;;9.09;96.86;102332.94;4945411;29;20031;-83
2023/09/24 04:56:49;;;;;;;4.72;2.80;;;;;;;9.08;96.48;102341.59;4945745;29;20026;-84
2023/09/24 04:59:15;;;;;;;5.25;2.50;;;;;;;9.08;96.36;102339.00;4943683;28;20039;-83
2023/09/24 05:01:40;;;;;;;4.00;2.78;;;;;;;9.08;96.59;102336.41;4947865;29;20030;-83
2023/09/24 05:04:05;;;;;;;5.95;2.97;;;;;;;9.07;96.33;102330.34;4952808;28;20027;-83
2023/09/24 05:06:32;;;;;;;4.40;2.63;;;;;;;9.06;96.38;102332.94;4942671;29;20110;-84
2023/09/24 05:08:57;;;;;;;4.53;2.83;;;;;;;9.04;96.24;102335.53;4947870;29;20073;-83
2023/09/24 05:11:23;;;;;;;4.55;2.65;;;;;;;9.04;96.34;102334.69;4951287;29;20055;-83
2023/09/24 05:13:48;;;;;;;3.92;2.45;;;;;;;9.05;96.40;102336.41;4949338;28;20035;-83
2023/09/24 05:16:15;;;;;;;4.18;2.67;;;;;;;9.03;96.13;102339.00;4950986;29;20454;-83
2023/09/24 05:18:41;;;;;;;4.63;2.95;;;;;;;9.03;96.31;102346.78;4952989;28;20483;-83
2023/09/24 05:21:14;;;;;;;4.75;2.60;;;;;;;9.03;96.31;102346.78;4953726;29;20030;-83
2023/09/24 05:23:39;;;;;;;6.72;2.67;;;;;;;9.03;96.33;102353.72;4949936;29;20040;-84
2023/09/24 05:26:10;;;;;;;5.68;2.70;;;;;;;9.03;96.28;102361.50;4943932;29;20043;-83
2023/09/24 05:28:35;;;;;;;4.32;2.45;;;;;;;9.02;96.11;102358.00;4949644;28;20023;-83
2023/09/24 05:31:02;;;;;;;4.68;2.60;;;;;;;9.00;96.12;102358.88;4945248;29;20032;-83
2023/09/24 05:33:28;;;;;;;4.13;2.40;;;;;;;8.99;96.19;102362.34;4940772;29;20098;-83
2023/09/24 05:35:53;;;;;;;5.43;2.97;;;;;;;8.98;96.18;102360.59;4936737;29;20031;-83
2023/09/24 05:38:19;;;;;;;3.08;2.38;;;;;;;8.98;96.21;102363.19;4945450;29;20027;-83
2023/09/24 05:40:45;;;;;;;4.75;2.60;;;;;;;8.98;96.32;102365.78;4953899;28;20479;-83
2023/09/24 05:43:10;;;;;;;4.20;2.90;;;;;;;8.98;96.57;102371.84;4943739;28;20023;-83
2023/09/24 05:45:35;;;;;;;4.97;2.78;;;;;;;8.99;96.28;102375.31;4940412;28;20480;-83
2023/09/24 05:48:00;;;;;;;5.63;2.75;;;;;;;8.98;96.24;102377.03;4953259;29;20062;-83
2023/09/24 05:50:26;;;;;;;4.95;2.63;;;;;;;9.00;96.21;102380.50;4948606;28;20075;-83
2023/09/24 05:52:51;;;;;;;4.75;2.55;;;;;;;9.00;96.28;102387.44;4948144;29;20027;-83
2023/09/24 05:55:16;;;;;;;4.22;2.65;;;;;;;9.01;96.54;102383.97;4952343;29;20395;-83
2023/09/24 05:57:42;;;;;;;5.38;2.60;;;;;;;9.00;96.38;102388.28;4953243;29;20031;-83
2023/09/24 06:00:08;;;;;;;3.53;2.35;;;;;;;9.01;96.59;102391.78;4949780;29;20071;-83
2023/09/24 06:02:34;;;;;;;4.25;2.28;;;;;;;9.02;96.65;102389.16;4953932;28;20471;-83
2023/09/24 06:04:59;;;;;;;3.92;2.45;;;;;;;9.04;96.87;102396.97;4953276;29;20039;-83
2023/09/24 06:07:28;;;;;;;3.30;2.47;;;;;;;9.06;96.71;102384.84;4944606;28;20476;-83
2023/09/24 06:09:54;;;;;;;4.50;2.35;;;;;;;9.09;96.50;102390.94;4951638;28;20046;-83
2023/09/24 06:12:20;;;;;;;5.60;2.47;;;;;;;9.12;97.02;102390.09;4951913;28;20467;-83
2023/09/24 06:14:45;;;;;;;4.10;2.50;;;;;;;9.16;96.92;102397.03;4951573;29;20515;-83
2023/09/24 06:17:11;;;;;;;5.88;2.70;;;;;;;9.19;96.93;102397.06;4945920;29;20055;-83
2023/09/24 06:19:36;;;;;;;4.75;2.38;;;;;;;9.20;96.87;102401.41;4947777;29;20031;-83
2023/09/24 06:22:01;;;;;;;4.93;2.40;;;;;;;9.26;97.02;102406.59;4943216;29;20077;-83
2023/09/24 06:24:26;;;;;;;3.88;2.42;;;;;;;9.32;97.24;102407.50;4949497;28;20468;-83
2023/09/24 06:26:52;;;;;;;3.90;2.40;;;;;;;9.33;97.07;102398.84;4950226;28;20035;-84
2023/09/24 06:29:17;;;;;;;6.28;2.53;;;;;;;9.37;97.46;102405.81;4950560;29;20043;-83
2023/09/24 06:31:42;;;;;;;4.07;2.38;;;;;;;9.39;97.27;102406.69;4949282;29;20451;-84
2023/09/24 06:34:09;;;;;;;3.90;2.35;;;;;;;9.43;97.38;102411.00;4946391;28;20084;-84
2023/09/24 06:36:34;;;;;;;4.35;2.50;;;;;;;9.46;97.16;102421.41;4963036;28;20023;-83
2023/09/24 06:38:59;;;;;;;5.45;2.53;;;;;;;9.48;97.59;102416.25;4942739;29;20035;-84
2023/09/24 06:41:25;;;;;;;5.63;2.50;;;;;;;9.50;97.59;102423.19;4948328;29;20034;-83
2023/09/24 06:43:51;;;;;;;4.65;2.50;;;;;;;9.52;97.40;102421.47;4936487;29;20384;-84
2023/09/24 06:46:16;;;;;;;5.38;2.60;;;;;;;9.56;97.34;102427.53;4939260;29;20042;-84
2023/09/24 06:48:41;;;;;;;5.40;2.60;;;;;;;9.58;97.55;102431.00;4947064;29;20041;-83
2023/09/24 06:51:08;;;;;;;3.78;2.35;;;;;;;9.60;97.63;102431.00;4948754;29;20036;-84
2023/09/24 06:53:35;;;;;;;5.60;2.28;;;;;;;9.62;97.54;102431.88;4951737;28;20035;-83
2023/09/24 06:56:06;;;;;;;4.32;2.38;;;;;;;9.64;97.71;102433.63;4936261;29;20031;-84
2023/09/24 06:58:33;;;;;;;3.53;2.13;;;;;;;9.65;97.49;102422.34;4945464;28;20079;-84
2023/09/24 07:01:00;;;;;;;6.10;2.65;;;;;;;9.68;97.58;102429.31;4945475;28;20032;-83
2023/09/24 07:03:25;;;;;;;4.10;2.38;;;;;;;9.68;97.77;102431.91;4941188;28;20035;-84
2023/09/24 07:05:51;;;;;;;7.70;2.63;;;;;;;9.70;98.01;102435.38;4945756;29;20030;-83
2023/09/24 07:08:16;;;;;;;5.50;2.42;;;;;;;9.72;98.11;102436.25;4949627;28;20380;-84
2023/09/24 07:10:42;;;;;;;5.28;2.70;;;;;;;9.76;98.20;102427.59;4945052;28;20379;-84
2023/09/24 07:13:07;;;;;;;4.75;2.70;;;;;;;9.79;98.26;102431.94;4951971;28;20034;-84
2023/09/24 07:15:32;;;;;;;6.85;2.72;;;;;;;9.82;98.37;102435.41;4945521;28;20084;-84
2023/09/24 07:17:57;;;;;;;5.22;2.70;;;;;;;9.86;98.02;102442.38;4946032;29;20031;-84
2023/09/24 07:20:23;;;;;;;6.57;2.95;;;;;;;9.90;97.77;102439.78;4947107;29;20035;-83
2023/09/24 07:22:48;;;;;;;5.22;3.08;;;;;;;9.92;98.67;102441.50;4947941;29;20387;-83
2023/09/24 07:25:13;;;;;;;6.00;2.83;;;;;;;9.96;98.43;102448.47;4939833;29;20042;-84
2023/09/24 07:27:40;;;;;;;6.47;3.05;;;;;;;10.00;98.58;102446.72;4952600;29;20498;-84
2023/09/24 07:30:06;;;;;;;6.63;3.17;;;;;;;10.04;98.83;102438.09;4949430;29;20110;-83
2023/09/24 07:32:33;;;;;;;7.20;3.22;;;;;;;10.08;98.79;102445.00;4943554;28;20090;-83
2023/09/24 07:34:58;;;;;;;7.25;3.00;;;;;;;10.13;98.86;102443.28;4946869;28;20486;-84
2023/09/24 07:37:23;;;;;;;5.45;2.85;;;;;;;10.18;99.10;102454.56;4943108;29;20427;-84
2023/09/24 07:39:49;;;;;;;5.50;2.55;;;;;;;10.24;98.95;102451.13;4947671;29;20028;-83
2023/09/24 07:42:15;;;;;;;6.70;2.78;;;;;;;10.30;98.48;102452.84;4945694;28;20065;-83
2023/09/24 07:44:41;;;;;;;5.63;2.90;;;;;;;10.37;98.62;102464.13;4948374;28;20035;-84
2023/09/24 07:47:07;;;;;;;5.53;3.00;;;;;;;10.40;98.37;102453.75;4945034;28;20029;-83
2023/09/24 07:49:32;;;;;;;6.63;3.20;;;;;;;10.46;99.04;102459.00;4945242;29;20130;-83
2023/09/24 07:51:57;;;;;;;7.22;3.00;;;;;;;10.52;99.04;102466.78;4944364;29;20031;-83
2023/09/24 07:54:22;;;;;;;5.13;2.60;;;;;;;10.60;98.96;102477.19;4944013;29;20035;-83
2023/09/24 07:56:48;;;;;;;6.95;3.00;;;;;;;10.65;98.76;102469.41;4948153;29;20028;-83
2023/09/24 07:59:13;;;;;;;4.68;2.85;;;;;;;10.72;98.76;102466.81;4947023;28;20379;-83
2023/09/24 08:01:39;;;;;;;5.38;3.05;;;;;;;10.78;99.05;102458.97;4941719;29;20031;-84
2023/09/24 08:04:05;;;;;;;6.50;2.83;;;;;;;10.87;98.68;102472.88;4960988;28;20102;-84
2023/09/24 08:06:30;;;;;;;4.63;2.60;;;;;;;10.93;98.35;102467.66;4944275;29;20122;-84
2023/09/24 08:08:56;;;;;;;5.18;2.85;;;;;;;10.98;98.25;102473.72;4948475;28;20106;-84
2023/09/24 08:11:22;;;;;;;6.65;3.05;;;;;;;11.07;98.92;102458.09;4941802;29;20467;-84
2023/09/24 08:13:48;;;;;;;6.18;2.90;;;;;;;11.14;98.05;102458.94;4940851;28;20091;-84
2023/09/24 08:16:14;;;;;;;5.28;2.85;;;;;;;11.25;98.16;102466.75;4947636;28;20034;-83
2023/09/24 08:18:40;;;;;;;6.00;3.10;;;;;;;11.31;97.87;102466.72;4946250;29;20023;-84
2023/09/24 08:21:06;;;;;;;5.32;2.97;;;;;;;11.38;97.37;102464.94;4945935;29;20034;-84
2023/09/24 08:23:31;;;;;;;6.13;3.20;;;;;;;11.44;96.75;102461.47;4950530;28;20037;-84
2023/09/24 08:25:57;;;;;;;6.10;3.33;;;;;;;11.53;96.30;102458.81;4950889;28;20106;-84
2023/09/24 08:28:22;;;;;;;6.68;3.00;;;;;;;11.59;95.89;102470.97;4944557;29;20031;-83
2023/09/24 08:30:47;;;;;;;6.35;3.20;;;;;;;11.66;96.28;102473.53;4948737;29;20453;-83
2023/09/24 08:33:13;;;;;;;7.13;3.05;;;;;;;11.74;96.43;102468.28;4949047;28;20031;-84
2023/09/24 08:35:41;;;;;;;5.28;3.08;;;;;;;11.81;96.59;102472.63;4946248;29;20051;-84
2023/09/24 08:38:07;;;;;;;6.15;2.90;;;;;;;11.89;96.46;102472.59;4946847;28;20427;-87
2023/09/24 08:40:32;;;;;;;6.00;3.05;;;;;;;11.96;97.03;102463.84;4950247;29;20038;-84
2023/09/24 08:42:58;;;;;;;5.68;2.75;;;;;;;12.03;95.79;102472.56;4950819;28;20041;-85
2023/09/24 08:45:26;;;;;;;5.55;2.60;;;;;;;12.08;94.72;102465.53;4950480;28;20114;-85
2023/09/24 08:47:52;;;;;;;6.00;2.67;;;;;;;12.16;95.13;102470.72;4944848;29;20050;-85
2023/09/24 08:50:18;;;;;;;4.40;2.58;;;;;;;12.23;95.46;102482.84;4947284;29;20475;-84
2023/09/24 08:52:45;;;;;;;3.70;2.35;;;;;;;12.29;94.39;102479.34;4946334;28;20391;-85
2023/09/24 08:55:12;;;;;;;4.13;2.30;;;;;;;12.34;93.59;102474.97;4947884;28;20141;-84
2023/09/24 08:57:44;;;;;;;4.90;2.50;;;;;;;12.45;92.71;102474.91;4950325;28;20027;-85
2023/09/24 09:00:12;;;;;;;4.45;2.00;;;;;;;12.51;91.74;102476.59;4946084;28;20524;-85
2023/09/24 09:02:43;;;;;;;5.03;2.17;;;;;;;12.57;92.33;102477.41;4948047;28;20059;-83
2023/09/24 09:05:19;;;;;;;5.53;2.58;;;;;;;12.63;92.84;102473.88;4947461;29;20047;-84
2023/09/24 09:07:54;;;;;;;5.43;2.00;;;;;;;12.72;93.80;102471.16;4944658;29;20122;-83
2023/09/24 09:10:25;;;;;;;4.20;1.80;;;;;;;12.79;91.62;102472.00;4947588;29;20036;-84
2023/09/24 09:12:50;;;;;;;3.58;1.60;;;;;;;12.86;91.34;102476.28;4948428;28;20031;-84
2023/09/24 09:15:19;;;;;;;4.03;1.73;;;;;;;12.94;92.29;102470.13;4951210;29;20042;-84
2023/09/24 09:17:44;;;;;;;3.65;1.50;;;;;;;13.01;91.60;102475.28;4945932;29;20043;-83
2023/09/24 09:20:10;;;;;;;3.08;1.30;;;;;;;13.06;91.21;102467.41;4941155;29;20020;-83
2023/09/24 09:22:36;;;;;;;3.25;1.38;;;;;;;13.14;92.77;102470.81;4944408;28;20015;-84
2023/09/24 09:25:09;;;;;;;3.97;1.10;;;;;;;13.23;91.21;102463.75;4944190;28;20383;-83
2023/09/24 09:27:35;;;;;;;3.13;1.30;;;;;;;13.30;91.75;102463.66;4945940;28;20131;-84
2023/09/24 09:30:15;;;;;;;6.13;1.30;;;;;;;13.38;93.46;102458.34;4949854;29;20054;-84
2023/09/24 09:32:41;;;;;;;4.07;1.10;;;;;;;13.43;91.69;102451.34;4949086;28;20039;-86
2023/09/24 09:35:07;;;;;;;3.03;1.02;;;;;;;13.49;91.14;102453.03;4947139;29;20547;-85
2023/09/24 09:37:32;;;;;;;3.88;1.30;;;;;;;13.56;90.68;102456.41;4942615;29;20110;-85
2023/09/24 09:39:57;;;;;;;3.72;1.10;;;;;;;13.63;90.87;102451.09;4947643;28;20023;-84
2023/09/24 09:42:25;;;;;;;3.00;1.20;;;;;;;13.70;89.97;102440.56;4946703;28;20114;-84
2023/09/24 09:44:52;;;;;;;3.40;1.00;;;;;;;13.76;88.65;102438.72;4949121;28;20031;-84
2023/09/24 09:47:20;;;;;;;2.83;1.00;;;;;;;13.84;88.34;102429.91;4948391;28;20051;-83
2023/09/24 09:49:58;;;;;;;3.05;1.00;;;;;;;13.91;88.86;102429.81;4947319;28;20032;-83
2023/09/24 09:52:31;;;;;;;1.90;0.90;;;;;;;13.95;88.35;102428.00;4943642;28;20089;-83
2023/09/24 09:55:02;;;;;;;3.72;0.90;;;;;;;14.00;86.68;102426.19;4949981;29;20160;-85
2023/09/24 09:57:30;;;;;;;4.38;1.02;;;;;;;14.06;87.43;102423.47;4946059;28;20031;-83
2023/09/24 09:59:57;;;;;;;2.67;0.90;;;;;;;14.14;86.50;102425.97;4950142;28;20031;-83
2023/09/24 10:02:22;;;;;;;2.72;1.00;;;;;;;14.18;85.70;102419.81;4946878;28;20027;-83
2023/09/24 10:04:48;;;;;;;3.35;1.10;;;;;;;14.23;85.77;102411.88;4945989;29;20042;-86
2023/09/24 10:07:14;;;;;;;3.38;1.20;;;;;;;14.29;85.66;102409.19;4946346;29;20023;-85
2023/09/24 10:09:40;;;;;;;2.85;1.10;;;;;;;14.34;84.41;102402.13;4949880;29;20059;-87
2023/09/24 10:12:08;;;;;;;2.50;0.98;;;;;;;14.37;83.05;102398.56;4941928;29;20187;-87
2023/09/24 10:14:42;;;;;;;2.60;0.85;;;;;;;14.42;83.78;102402.84;4944022;29;20026;-85
2023/09/24 10:17:16;;;;;;;3.17;0.98;;;;;;;14.49;85.25;102407.97;4948659;29;20027;-85
2023/09/24 10:19:50;;;;;;;2.20;0.90;;;;;;;14.55;84.75;102407.84;4948481;29;20067;-84
2023/09/24 10:22:26;;;;;;;1.58;0.80;;;;;;;14.59;83.61;102408.69;4949028;28;20027;-84
2023/09/24 10:24:51;;;;;;;2.42;1.15;;;;;;;14.62;84.59;102404.25;4947010;29;20058;-84
2023/09/24 10:27:23;;;;;;;5.13;1.00;;;;;;;14.66;82.17;102399.81;4948554;29;20054;-84
2023/09/24 10:29:52;;;;;;;1.80;0.95;;;;;;;14.71;82.68;102398.03;4945270;28;20031;-84
2023/09/24 10:32:18;;;;;;;2.50;0.82;;;;;;;14.75;80.31;102388.34;4944784;28;20035;-84
2023/09/24 10:34:55;;;;;;;2.78;0.80;;;;;;;14.81;80.53;102383.00;4944067;28;20105;-84
2023/09/24 10:37:39;;;;;;;3.50;0.80;;;;;;;14.87;80.40;102388.09;4946060;28;20023;-84
2023/09/24 10:40:09;;;;;;;3.80;0.90;;;;;;;14.93;80.57;102392.38;4939421;29;20471;-85
2023/09/24 10:42:42;;;;;;;1.55;0.80;;;;;;;14.98;77.37;102398.38;4949874;28;20043;-85
2023/09/24 10:45:07;;;;;;;2.90;1.00;;;;;;;15.02;76.70;102393.06;4941278;29;20035;-83
2023/09/24 10:47:40;;;;;;;2.38;0.80;;;;;;;15.08;78.92;102391.22;4942523;28;20431;-85
2023/09/24 10:50:15;;;;;;;2.85;0.80;;;;;;;15.13;78.71;102384.13;4947204;28;20131;-85
2023/09/24 10:53:09;;;;;;;2.40;0.90;;;;;;;15.20;78.73;102382.25;4943471;28;20035;-87
2023/09/24 10:55:36;;;;;;;3.45;1.00;;;;;;;15.26;79.55;102396.09;4941317;29;20050;-83
2023/09/24 10:58:12;;;;;;;2.78;0.93;;;;;;;15.30;78.95;102392.50;4945804;28;20031;-86
2023/09/24 11:00:38;;;;;;;4.30;1.08;;;;;;;15.37;77.61;102384.53;4945924;29;20030;-83
2023/09/24 11:03:06;;;;;;;1.63;0.80;;;;;;;15.39;74.79;102391.44;4940916;29;20102;-85
2023/09/24 11:05:41;;;;;;;4.10;1.00;;;;;;;15.46;77.34;102395.66;4942289;29;20054;-87
2023/09/24 11:08:07;;;;;;;2.67;0.80;;;;;;;15.48;75.00;102391.25;4943460;29;20239;-85
2023/09/24 11:10:33;;;;;;;2.70;0.80;;;;;;;15.53;73.37;102393.78;4945333;29;20039;-87
2023/09/24 11:13:03;;;;;;;1.83;0.60;;;;;;;15.59;73.82;102388.38;4943021;29;20027;-86
2023/09/24 11:15:33;;;;;;;3.03;0.85;;;;;;;15.65;74.77;102383.91;4942361;29;20125;-84
2023/09/24 11:18:00;;;;;;;3.47;0.90;;;;;;;15.66;73.17;102377.78;4943333;29;20310;-84
2023/09/24 11:20:28;;;;;;;3.10;1.05;;;;;;;15.71;75.62;102386.41;4941534;28;20610;-83
2023/09/24 11:23:02;;;;;;;3.40;0.82;;;;;;;15.76;74.57;102390.66;4939254;28;20035;-85
2023/09/24 11:25:29;;;;;;;4.10;0.82;;;;;;;15.80;69.35;102388.81;4942327;29;20054;-89
2023/09/24 11:27:58;;;;;;;2.80;0.85;;;;;;;15.83;71.76;102388.75;4941431;29;20062;-88